• Join FlightAware (Why Join?)
  • Login
  • US Flag 
12:29AM EDT


 

Airport Tracker/Info


-or-


 

Live Flight TrackerFlight Track Log ✈ FFT414 ✈ 07-Apr-2013 ✈ KLAX - KDEN

Flight Track Log - Related Links

Times and Time Zones

All times are in EDT time to prevent confusion due to time zone crossing. See the FFT414 flight status page for this flight to view local times or setup timezone preferences in your user account.

Time Position Orientation Groundspeed Altitude Reporting Facility
EDT Latitude Longitude Course Direction KTS MPH feet Rate Location/Type
06:24PM 33.9333 -118.4500 252° West 179 206 1,700  Level Southern California TRACON
06:25PM 33.9106 -118.5325 252° West 222 255 5,100 2,880 Climbing Los Angeles Center
06:26PM 33.8528 -118.5425 188° South 246 283 8,400 2,280 Climbing Los Angeles Center
06:27PM 33.8767 -118.4753 67° East 266 306 9,900 1,740 Climbing Los Angeles Center
06:28PM 33.9478 -118.4089 38° Northeast 317 365 12,000 2,220 Climbing Los Angeles Center
06:29PM 34.0014 -118.3128 56° Northeast 342 394 14,600 2,460 Climbing Los Angeles Center
06:30PM 34.0594 -118.2108 55° Northeast 361 415 17,100 2,280 Climbing Los Angeles Center
06:31PM 34.1192 -118.1067 55° Northeast 374 430 19,400 2,100 Climbing Los Angeles Center
06:33PM 34.1814 -117.9956 56° Northeast 393 452 21,500 1,920 Climbing Los Angeles Center
06:34PM 34.2450 -117.8814 56° Northeast 408 470 23,400 1,980 Climbing Los Angeles Center
06:35PM 34.3100 -117.7636 56° Northeast 419 482 25,600 1,980 Climbing Los Angeles Center
06:36PM 34.3892 -117.6242 55° Northeast 421 484 27,600 1,560 Climbing Los Angeles Center
06:37PM 34.4519 -117.5275 52° Northeast 428 493 28,900 1,200 Climbing Los Angeles Center
06:38PM 34.5469 -117.3947 49° Northeast 437 503 30,200 1,140 Climbing Los Angeles Center
06:39PM 34.6264 -117.2789 50° Northeast 447 514 31,300 1,020 Climbing Los Angeles Center
06:40PM 34.7097 -117.1617 49° Northeast 458 527 32,400 1,020 Climbing Los Angeles Center
06:41PM 34.7936 -117.0403 50° Northeast 469 540 33,500 960 Climbing Los Angeles Center
06:42PM 34.8786 -116.9186 50° Northeast 474 545 34,500 960 Climbing Los Angeles Center
06:43PM 34.9828 -116.7703 49° Northeast 481 554 35,500 960 Climbing Los Angeles Center
06:44PM 35.0706 -116.6431 50° Northeast 490 564 36,500 1,080 Climbing Los Angeles Center
06:45PM 35.1564 -116.5181 50° Northeast 487 560 37,800 1,020 Climbing Los Angeles Center
06:46PM 35.2439 -116.3953 49° Northeast 482 555 38,700 540 Climbing Los Angeles Center
06:47PM 35.3267 -116.2728 50° Northeast 471 542 39,000 120 Climbing Los Angeles Center
06:48PM 35.4264 -116.1233 51° Northeast 475 547 39,000  Level Los Angeles Center
06:49PM 35.5153 -115.9994 49° Northeast 484 557 39,000  Level Los Angeles Center
06:50PM 35.5931 -115.8722 53° Northeast 478 550 39,000  Level Los Angeles Center
06:51PM 35.6525 -115.7217 64° Northeast 491 565 39,000  Level Los Angeles Center
06:52PM 35.7231 -115.5411 64° Northeast 492 566 39,000  Level Los Angeles Center
06:53PM 35.7825 -115.3889 64° Northeast 497 572 39,000  Level Los Angeles Center
06:54PM 35.8419 -115.2353 64° Northeast 501 577 39,100  Climbing Los Angeles Center
06:55PM 35.8981 -115.0828 66° East 496 571 39,000 -60 Descending Los Angeles Center
06:56PM 35.9575 -114.9283 65° Northeast 502 578 39,000  Level Los Angeles Center
06:57PM 36.0294 -114.7431 64° Northeast 502 578 39,000  Level Los Angeles Center
06:58PM 36.0872 -114.5886 65° Northeast 500 575 39,000  Level Los Angeles Center
06:59PM 36.1453 -114.4333 65° Northeast 500 575 39,000  Level Los Angeles Center
07:00PM 36.2053 -114.2775 64° Northeast 503 579 39,000  Level Los Angeles Center
07:02PM 36.2747 -114.0900 65° Northeast 502 578 39,000  Level Los Angeles Center
07:03PM 36.3328 -113.9314 66° East 506 582 39,000  Level Los Angeles Center
07:04PM 36.4025 -113.7442 65° Northeast 500 575 39,000  Level Los Angeles Center
07:05PM 36.4606 -113.5867 65° Northeast 501 577 39,000  Level Los Angeles Center
07:06PM 36.5125 -113.4469 65° Northeast 498 573 39,000  Level Los Angeles Center
07:07PM 36.5803 -113.2583 66° East 500 575 39,000  Level Los Angeles Center
07:08PM 36.6375 -113.1006 66° East 503 579 39,100  Climbing Los Angeles Center
07:09PM 36.6953 -112.9411 66° East 507 583 39,100 -60 Level Los Angeles Center
07:10PM 36.7531 -112.7808 66° East 509 586 39,000 -60 Descending Los Angeles Center
07:11PM 36.8094 -112.6219 66° East 507 583 39,000  Level Los Angeles Center
07:12PM 36.8778 -112.4325 66° East 504 580 39,000  Level Los Angeles Center
07:13PM 36.9331 -112.2756 66° East 499 574 39,000  Level Los Angeles Center
07:14PM 36.9897 -112.1172 66° East 502 578 39,000  Level Los Angeles Center
07:15PM 37.0458 -111.9606 66° East 499 574 39,000  Level Los Angeles Center
07:16PM 37.1006 -111.8022 67° East 498 573 39,000  Level Los Angeles Center
07:17PM 37.1678 -111.6100 66° East 503 579 39,000  Level Los Angeles Center
07:18PM 37.2197 -111.4514 68° East 497 572 39,100  Climbing Los Angeles Center
07:19PM 37.2753 -111.2881 67° East 507 583 39,000 -60 Descending Los Angeles Center
07:20PM 37.3283 -111.1253 68° East 508 585 39,000  Level Denver Center
07:21PM 37.3850 -110.9614 66° East 511 588 39,000  Level Denver Center
07:22PM 37.4497 -110.7672 67° East 505 581 39,000  Level Denver Center
07:23PM 37.5031 -110.6044 68° East 504 580 39,000  Level Denver Center
07:24PM 37.5592 -110.4369 67° East 504 580 39,000  Level Denver Center
07:26PM 37.6106 -110.2797 68° East 505 581 39,100  Climbing Denver Center
07:27PM 37.6714 -110.0947 67° East 509 586 39,000 -60 Descending Denver Center
07:28PM 37.7228 -109.9367 68° East 509 586 39,000  Level Denver Center
07:29PM 37.7828 -109.7525 68° East 509 586 39,000  Level Denver Center
07:30PM 37.8331 -109.5939 68° East 507 583 39,000  Level Denver Center
07:31PM 37.8919 -109.4078 68° East 509 586 39,000  Level Denver Center
07:32PM 37.9431 -109.2489 68° East 508 585 39,000  Level Denver Center
07:33PM 38.0011 -109.0644 68° East 505 581 39,000  Level Denver Center
07:34PM 38.0514 -108.9036 68° East 509 586 39,000  Level Denver Center
07:35PM 38.1036 -108.7333 69° East 513 590 39,000  Level Denver Center
07:36PM 38.1622 -108.5467 68° East 510 587 39,000  Level Denver Center
07:37PM 38.2119 -108.3889 68° East 506 582 39,000  Level Denver Center
07:38PM 38.2694 -108.1978 69° East 513 590 39,000  Level Denver Center
07:39PM 38.3186 -108.0367 69° East 513 590 39,000  Level Denver Center
07:40PM 38.3758 -107.8472 69° East 515 593 39,000  Level Denver Center
07:41PM 38.4256 -107.6839 69° East 517 595 39,000  Level Denver Center
07:42PM 38.4936 -107.5019 64° Northeast 513 590 39,000 -60 Level Denver Center
07:43PM 38.5614 -107.3514 60° Northeast 512 589 38,900 -300 Descending Denver Center
07:44PM 38.6258 -107.2067 60° Northeast 490 564 38,400 -1,020 Descending Denver Center
07:45PM 38.6975 -107.0458 60° Northeast 492 566 36,800 -1,860 Descending Denver Center
07:46PM 38.7681 -106.8853 61° Northeast 515 593 34,600 -1,920 Descending Denver Center
07:47PM 38.8414 -106.7192 60° Northeast 534 615 32,500 -1,680 Descending Denver Center
07:48PM 38.9433 -106.4986 59° Northeast 506 582 30,900 -1,800 Descending Denver Center
07:49PM 39.0078 -106.3569 60° Northeast 486 559 28,800 -1,860 Descending Denver Center
07:51PM 39.0594 -106.2431 60° Northeast 470 541 27,100 -2,100 Descending Denver Center
07:52PM 39.1375 -106.0686 60° Northeast 453 521 24,500 -2,220 Descending Denver Center
07:53PM 39.1972 -105.9314 61° Northeast 438 504 22,600 -1,860 Descending Denver Center
07:54PM 39.2550 -105.7992 61° Northeast 421 484 20,700 -1,800 Descending Denver Center
07:55PM 39.3206 -105.6497 60° Northeast 409 471 19,000 -1,620 Descending Denver Center
07:56PM 39.3744 -105.5283 60° Northeast 391 450 17,400 -1,260 Descending Denver Center
07:57PM 39.3981 -105.4056 76° East 368 423 16,400 -1,200 Descending Denver Center
07:58PM 39.4047 -105.2731 86° East 349 402 15,000 -1,200 Descending Denver Center
07:59PM 39.4103 -105.1431 87° East 341 392 13,900 -780 Descending Denver Center
08:00PM 39.4153 -105.0328 87° East 313 360 13,400 -540 Descending Denver Center
08:01PM 39.4225 -104.9308 85° East 290 334 12,900 -600 Descending Denver Center
08:02PM 39.4503 -104.8264 71° East 284 327 12,200 -960 Descending Denver Center
08:03PM 39.4744 -104.7347 71° East 270 311 11,000 -1,020 Descending Denver Center
08:04PM 39.5306 -104.6736 40° Northeast 255 293 10,200 -540 Descending Denver Center
08:05PM 39.5989 -104.6617 North 247 284 10,000 -480 Descending Denver Center
08:06PM 39.6594 -104.6628 359° North 221 254 9,300 -1,020 Descending Denver Center
08:07PM 39.7164 -104.6619 North 195 224 8,000 -1,260 Descending Denver Center
08:08PM 39.7706 -104.6619 360° North 193 222 6,800 -1,080 Descending Denver Center
08:09PM 39.8136 -104.6611 North 145 167 5,800 -720 Descending Denver Center
08:10PM 39.8442 -104.6614 360° North 129 148 5,400 -420 Descending Denver Center
08:12PM 39.8500 -104.6667 10° North  Level FlightAware Approximate